Time;durP1;ratioP1;P1;durP2;ratioP2;P2;SDS_P1;SDS_P2;PMS_P1;PMS_P2;Temp;Humidity;BMP_temperature;BMP_pressure;BME280_temperature;BME280_humidity;BME280_pressure;Samples;Min_cycle;Max_cycle;Signal;HPM_P1;HPM_P2
2022/10/30 00:00:53;;;;;;;20.73;11.30;;;;;;;12.46;100.00;98912.25;2648249;28;20051;-96
2022/10/30 00:02:25;;;;;;;17.88;10.82;;;;;;;12.53;100.00;98911.16;2638291;28;20250;-95
2022/10/30 00:03:41;;;;;;;20.80;10.23;;;;;;;12.50;100.00;98913.88;2641725;28;20043;-95
2022/10/30 00:04:56;;;;;;;22.75;12.13;;;;;;;12.48;100.00;98912.19;2647998;28;20085;-96
2022/10/30 00:06:12;;;;;;;22.90;11.30;;;;;;;12.43;100.00;98912.31;2646801;28;20078;-95
2022/10/30 00:07:27;;;;;;;17.42;10.77;;;;;;;12.31;100.00;98897.75;2648389;28;20047;-95
2022/10/30 00:08:43;;;;;;;25.42;11.52;;;;;;;12.25;100.00;98904.03;2653406;28;20047;-96
2022/10/30 00:09:59;;;;;;;18.48;10.13;;;;;;;12.28;100.00;98903.09;2648555;28;20051;-96
2022/10/30 00:11:14;;;;;;;17.48;10.70;;;;;;;12.26;100.00;98899.66;2646302;28;20093;-96
2022/10/30 00:12:31;;;;;;;17.00;10.43;;;;;;;12.25;100.00;98897.94;2647635;28;20096;-95
2022/10/30 00:13:46;;;;;;;21.52;11.10;;;;;;;12.28;100.00;98903.94;2646748;28;20039;-96
2022/10/30 00:15:02;;;;;;;18.50;10.40;;;;;;;12.27;100.00;98896.97;2647391;28;20058;-96
2022/10/30 00:16:18;;;;;;;20.15;10.18;;;;;;;12.06;100.00;98903.69;2647498;28;20477;-96
2022/10/30 00:17:34;;;;;;;21.17;10.65;;;;;;;11.95;100.00;98900.47;2647044;28;20044;-96
2022/10/30 00:18:49;;;;;;;17.40;10.50;;;;;;;11.95;100.00;98897.84;2646778;28;20081;-96
2022/10/30 00:20:06;;;;;;;21.67;11.25;;;;;;;11.99;100.00;98895.06;2646556;28;20055;-96
2022/10/30 00:21:22;;;;;;;19.88;10.70;;;;;;;11.98;100.00;98897.75;2647318;28;20043;-96
2022/10/30 00:22:37;;;;;;;19.60;10.15;;;;;;;11.90;100.00;98892.72;2648283;28;20040;-96
2022/10/30 00:23:53;;;;;;;21.13;10.65;;;;;;;11.79;100.00;98894.75;2648001;28;20073;-96
2022/10/30 00:25:08;;;;;;;23.58;11.27;;;;;;;11.66;100.00;98888.94;2650777;28;20048;-96
2022/10/30 00:26:24;;;;;;;18.48;10.90;;;;;;;11.82;100.00;98890.28;2648516;28;20047;-95
2022/10/30 00:27:40;;;;;;;20.35;10.82;;;;;;;11.86;100.00;98886.66;2647591;28;20047;-94
2022/10/30 00:28:56;;;;;;;20.40;11.80;;;;;;;11.89;100.00;98893.63;2648194;28;20130;-95
2022/10/30 00:30:12;;;;;;;17.48;9.90;;;;;;;11.61;100.00;98890.81;2648084;28;20054;-96
2022/10/30 00:31:27;;;;;;;18.73;10.40;;;;;;;11.47;100.00;98889.41;2646896;28;20047;-95
2022/10/30 00:32:43;;;;;;;19.42;10.40;;;;;;;11.21;100.00;98895.28;2647712;28;20040;-94
2022/10/30 00:33:58;;;;;;;19.67;10.45;;;;;;;11.22;100.00;98895.22;2647388;28;20469;-95
2022/10/30 00:35:14;;;;;;;20.83;11.10;;;;;;;11.40;100.00;98891.31;2647554;28;20047;-95
2022/10/30 00:36:30;;;;;;;23.92;10.77;;;;;;;11.43;100.00;98883.34;2647516;28;20481;-95
2022/10/30 00:37:46;;;;;;;20.95;10.75;;;;;;;11.69;100.00;98889.72;2646375;28;20068;-94
2022/10/30 00:39:02;;;;;;;21.05;11.30;;;;;;;11.80;100.00;98883.34;2647068;28;20039;-96
2022/10/30 00:40:18;;;;;;;19.00;10.45;;;;;;;11.85;100.00;98884.97;2646892;28;20039;-96
2022/10/30 00:41:35;;;;;;;18.60;10.82;;;;;;;11.85;100.00;98886.69;2646881;28;20051;-95
2022/10/30 00:42:51;;;;;;;21.23;10.95;;;;;;;11.93;100.00;98889.13;2646341;28;20047;-96
2022/10/30 00:44:35;;;;;;;21.83;10.32;;;;;;;11.99;100.00;98886.34;2646350;28;20071;-95
2022/10/30 00:45:51;;;;;;;24.65;11.35;;;;;;;11.99;100.00;98887.19;2646350;28;20044;-95
2022/10/30 00:47:31;;;;;;;22.85;10.65;;;;;;;12.00;100.00;98882.81;2646025;28;20044;-95
2022/10/30 00:48:55;;;;;;;18.90;10.75;;;;;;;12.02;100.00;98881.06;2646034;28;20324;-94
2022/10/30 00:50:20;;;;;;;15.68;9.98;;;;;;;11.99;100.00;98878.47;2646642;28;20039;-95
2022/10/30 00:51:38;;;;;;;17.13;10.05;;;;;;;11.97;100.00;98880.28;2646372;28;20429;-96
2022/10/30 00:53:16;;;;;;;23.35;10.40;;;;;;;11.92;100.00;98879.53;2646385;28;20051;-95
2022/10/30 00:54:34;;;;;;;23.25;10.82;;;;;;;11.75;100.00;98880.00;2646143;28;20084;-95
2022/10/30 00:55:55;;;;;;;24.95;11.90;;;;;;;11.81;100.00;98874.56;2646136;28;20044;-95
2022/10/30 00:57:10;;;;;;;18.73;10.13;;;;;;;11.83;100.00;98876.28;2646359;28;20063;-96
2022/10/30 00:58:32;;;;;;;21.17;11.27;;;;;;;11.89;100.00;98875.25;2646023;28;20051;-96
2022/10/30 00:59:48;;;;;;;23.52;11.90;;;;;;;11.90;100.00;98876.97;2645690;28;20052;-95
2022/10/30 01:01:08;;;;;;;21.42;11.88;;;;;;;11.94;100.00;98873.34;2646631;28;20500;-96
2022/10/30 01:02:24;;;;;;;29.55;12.48;;;;;;;12.00;100.00;98870.53;2645441;28;20444;-95
2022/10/30 01:03:40;;;;;;;17.73;10.95;;;;;;;12.03;100.00;98871.44;2645570;28;20044;-94
2022/10/30 01:04:56;;;;;;;18.58;10.20;;;;;;;12.08;100.00;98866.91;2645499;28;20058;-94
2022/10/30 01:06:14;;;;;;;18.98;10.93;;;;;;;12.06;100.00;98866.94;2645987;28;20111;-94
2022/10/30 01:07:30;;;;;;;17.05;9.82;;;;;;;12.08;100.00;98867.78;2647248;28;20054;-96
2022/10/30 01:08:46;;;;;;;20.92;10.68;;;;;;;12.09;100.00;98866.88;2648134;28;20062;-96
2022/10/30 01:10:02;;;;;;;19.30;10.23;;;;;;;12.09;100.00;98866.00;2649516;28;20031;-96
2022/10/30 01:11:18;;;;;;;18.50;10.75;;;;;;;12.04;100.00;98866.13;2646862;28;20052;-94
2022/10/30 01:12:33;;;;;;;25.83;10.98;;;;;;;12.06;100.00;98863.47;2647111;28;20059;-96
2022/10/30 01:13:53;;;;;;;19.58;10.43;;;;;;;12.05;100.00;98865.22;2645875;28;20048;-93
2022/10/30 01:15:10;;;;;;;20.35;10.48;;;;;;;12.05;100.00;98862.59;2647370;28;20067;-95
2022/10/30 01:16:44;;;;;;;23.33;10.35;;;;;;;12.05;100.00;98859.97;2647663;28;20143;-96
2022/10/30 01:18:12;;;;;;;19.70;10.55;;;;;;;11.97;100.00;98860.13;2648196;28;20055;-96
2022/10/30 01:20:00;;;;;;;26.95;10.70;;;;;;;11.92;100.00;98861.16;2648657;28;20043;-94
2022/10/30 01:21:22;;;;;;;23.30;10.43;;;;;;;11.89;100.00;98861.25;2605298;28;20045;-96
2022/10/30 01:22:51;;;;;;;22.05;10.52;;;;;;;11.65;100.00;98853.13;2648757;28;20048;-95
2022/10/30 01:24:17;;;;;;;19.85;10.75;;;;;;;11.61;100.00;98854.97;2648555;28;20492;-93
2022/10/30 01:25:57;;;;;;;19.67;10.35;;;;;;;11.60;100.00;98855.88;2648640;28;20044;-95
2022/10/30 01:27:34;;;;;;;23.30;10.02;;;;;;;11.65;100.00;98858.34;2648663;28;20055;-95
2022/10/30 01:29:05;;;;;;;20.02;10.50;;;;;;;11.55;100.00;98860.38;2648141;28;20359;-95
2022/10/30 01:30:40;;;;;;;20.13;9.60;;;;;;;11.50;100.00;98855.22;2648736;28;20129;-93
2022/10/30 01:32:19;;;;;;;21.65;10.32;;;;;;;11.54;100.00;98858.63;2648424;28;20133;-94
2022/10/30 01:33:59;;;;;;;20.80;10.48;;;;;;;11.53;100.00;98857.81;2649906;28;20061;-94
2022/10/30 01:35:46;;;;;;;20.33;10.10;;;;;;;11.53;100.00;98862.16;2645358;28;20542;-95
2022/10/30 01:37:07;;;;;;;16.15;10.35;;;;;;;11.58;100.00;98860.28;2646007;28;20039;-93
2022/10/30 01:38:32;;;;;;;18.80;9.95;;;;;;;11.53;100.00;98849.94;2645561;28;20436;-94
2022/10/30 01:39:47;;;;;;;16.17;10.05;;;;;;;11.40;100.00;98851.13;2644838;28;20073;-96
2022/10/30 01:41:03;;;;;;;18.17;10.38;;;;;;;11.35;100.00;98858.22;2645598;28;20477;-93
2022/10/30 01:42:40;;;;;;;25.63;10.40;;;;;;;11.18;100.00;98851.66;2644519;28;20405;-96
2022/10/30 01:44:01;;;;;;;23.15;10.88;;;;;;;11.06;100.00;98849.31;2644899;28;20047;-95
2022/10/30 01:45:23;;;;;;;18.23;10.15;;;;;;;11.06;100.00;98857.16;2645172;28;20107;-95
2022/10/30 01:46:56;;;;;;;19.10;10.13;;;;;;;11.16;100.00;98849.06;2645035;28;20469;-93
2022/10/30 01:48:25;;;;;;;19.83;10.30;;;;;;;11.18;100.00;98840.31;2645316;28;20060;-94
2022/10/30 01:49:49;;;;;;;19.10;9.13;;;;;;;10.70;100.00;98839.63;2646048;28;20522;-93
2022/10/30 01:54:39;;;;;;;18.67;9.80;;;;;;;10.60;100.00;98837.22;2581126;28;20133;-95
2022/10/30 01:56:08;;;;;;;22.55;10.18;;;;;;;10.55;100.00;98843.47;2587483;28;20096;-96
2022/10/30 01:57:46;;;;;;;19.98;10.32;;;;;;;10.52;100.00;98852.25;2608097;28;20073;-95
2022/10/30 01:59:08;;;;;;;24.80;10.18;;;;;;;10.73;100.00;98850.03;2646138;28;20071;-96
2022/10/30 02:00:23;;;;;;;19.92;11.32;;;;;;;10.80;100.00;98851.63;2647242;28;20101;-96
2022/10/30 02:01:40;;;;;;;21.42;10.77;;;;;;;10.86;100.00;98850.66;2647782;28;20485;-95
2022/10/30 02:02:56;;;;;;;21.05;11.30;;;;;;;10.88;100.00;98849.69;2647004;28;20048;-96
2022/10/30 02:04:12;;;;;;;18.40;10.85;;;;;;;10.98;100.00;98850.38;2647288;28;20051;-95
2022/10/30 02:06:04;;;;;;;28.35;11.88;;;;;;;10.87;100.00;98855.81;2647345;28;20081;-95
2022/10/30 02:07:20;;;;;;;38.70;13.07;;;;;;;10.84;100.00;98853.28;2602305;28;20052;-96
2022/10/30 02:08:35;;;;;;;101.60;15.48;;;;;;;10.88;100.00;98856.72;2602643;28;20514;-96
2022/10/30 02:09:52;;;;;;;74.13;15.15;;;;;;;10.85;100.00;98857.63;2630988;28;20055;-95
2022/10/30 02:11:09;;;;;;;37.67;12.40;;;;;;;10.93;100.00;98864.47;2646343;28;20461;-95
2022/10/30 02:12:26;;;;;;;23.45;11.25;;;;;;;10.97;100.00;98863.50;2645478;28;20047;-95
2022/10/30 02:13:41;;;;;;;21.50;11.55;;;;;;;10.97;100.00;98860.88;2645233;28;20071;-95
2022/10/30 02:14:59;;;;;;;20.85;10.85;;;;;;;10.80;100.00;98866.47;2644750;28;20050;-96
2022/10/30 02:16:15;;;;;;;19.88;11.00;;;;;;;10.87;100.00;98861.06;2644593;28;20641;-94
2022/10/30 02:17:31;;;;;;;19.02;11.18;;;;;;;10.86;100.00;98861.97;2644969;28;20043;-94
2022/10/30 02:18:46;;;;;;;25.33;11.32;;;;;;;10.92;100.00;98857.50;2643380;28;20507;-95
2022/10/30 02:20:02;;;;;;;24.52;10.40;;;;;;;10.93;100.00;98856.59;2644659;28;20341;-94
2022/10/30 02:21:17;;;;;;;17.60;10.02;;;;;;;10.91;100.00;98854.00;2644558;28;20047;-96
2022/10/30 02:22:33;;;;;;;15.88;10.23;;;;;;;10.79;100.00;98862.13;2645056;28;20401;-96
2022/10/30 02:23:49;;;;;;;21.20;10.32;;;;;;;10.73;100.00;98852.66;2645530;28;20039;-95
2022/10/30 02:25:05;;;;;;;20.90;10.70;;;;;;;10.51;100.00;98853.13;2645101;28;20097;-96
2022/10/30 02:26:20;;;;;;;21.90;11.15;;;;;;;10.40;100.00;98855.06;2646374;28;20126;-95
2022/10/30 02:27:36;;;;;;;21.00;11.00;;;;;;;10.39;100.00;98850.75;2647055;28;20055;-95
2022/10/30 02:28:51;;;;;;;20.80;10.85;;;;;;;10.59;100.00;98855.59;2647274;28;20048;-96
2022/10/30 02:30:08;;;;;;;21.73;10.95;;;;;;;10.61;100.00;98859.03;2647432;28;20055;-96
2022/10/30 02:31:23;;;;;;;20.48;11.02;;;;;;;10.52;100.00;98857.47;2648326;28;20040;-96
2022/10/30 02:32:39;;;;;;;19.90;10.73;;;;;;;10.43;100.00;98862.91;2647756;28;20056;-95
2022/10/30 02:33:55;;;;;;;19.85;10.88;;;;;;;10.42;100.00;98853.31;2647085;28;20077;-96
2022/10/30 02:35:10;;;;;;;39.17;12.50;;;;;;;10.54;100.00;98863.53;2647407;28;20044;-96
2022/10/30 02:36:26;;;;;;;54.72;12.85;;;;;;;10.67;100.00;98858.88;2648083;28;20067;-95
2022/10/30 02:37:43;;;;;;;46.97;12.48;;;;;;;10.56;100.00;98859.13;2648227;28;20050;-95
2022/10/30 02:38:59;;;;;;;38.03;12.32;;;;;;;10.52;100.00;98862.72;2647425;28;20096;-95
2022/10/30 02:40:14;;;;;;;30.40;14.00;;;;;;;10.60;100.00;98859.94;2647734;28;20042;-95
2022/10/30 02:41:30;;;;;;;33.97;12.82;;;;;;;10.60;100.00;98854.69;2647361;28;20134;-96
2022/10/30 02:42:53;;;;;;;88.43;14.50;;;;;;;10.77;100.00;98856.06;2646819;28;20048;-95
2022/10/30 02:44:09;;;;;;;75.93;14.45;;;;;;;10.76;100.00;98859.59;2647477;28;20052;-95
2022/10/30 02:45:24;;;;;;;103.70;13.95;;;;;;;10.69;100.00;98864.09;2647299;28;20438;-95
2022/10/30 02:46:40;;;;;;;50.83;13.05;;;;;;;10.50;100.00;98869.75;2648011;28;20097;-95
2022/10/30 02:47:58;;;;;;;36.75;11.73;;;;;;;10.51;100.00;98857.50;2646483;28;20050;-96
2022/10/30 02:49:14;;;;;;;23.02;11.32;;;;;;;10.68;100.00;98857.16;2645634;28;20043;-94
2022/10/30 02:50:29;;;;;;;30.00;10.95;;;;;;;10.69;100.00;98853.63;2646610;28;20071;-95
2022/10/30 02:51:45;;;;;;;36.60;10.93;;;;;;;10.59;100.00;98847.72;2646857;28;20454;-95
2022/10/30 02:53:01;;;;;;;23.00;10.10;;;;;;;10.50;100.00;98853.16;2647053;28;20051;-96
2022/10/30 02:54:16;;;;;;;44.05;11.65;;;;;;;10.66;100.00;98857.16;2647545;28;20508;-96
2022/10/30 02:55:32;;;;;;;68.43;14.63;;;;;;;10.71;100.00;98855.31;2648202;28;20766;-95
2022/10/30 02:56:47;;;;;;;28.30;10.68;;;;;;;10.81;100.00;98853.34;2647316;28;20039;-94
2022/10/30 02:58:03;;;;;;;41.42;10.85;;;;;;;10.88;100.00;98852.31;2646119;28;20048;-96
2022/10/30 02:59:19;;;;;;;23.75;10.77;;;;;;;10.70;100.00;98860.59;2644850;28;20046;-96
2022/10/30 03:00:35;;;;;;;26.13;10.48;;;;;;;10.77;100.00;98846.47;2645919;28;20079;-93
2022/10/30 03:01:50;;;;;;;19.42;10.55;;;;;;;10.85;100.00;98844.53;2646191;28;20417;-96
2022/10/30 03:03:06;;;;;;;26.05;11.65;;;;;;;10.73;100.00;98847.41;2646472;28;20160;-95
2022/10/30 03:04:21;;;;;;;48.83;11.45;;;;;;;10.76;100.00;98844.75;2646315;28;20044;-95
2022/10/30 03:05:37;;;;;;;21.13;10.23;;;;;;;10.78;100.00;98842.97;2646359;28;20549;-95
2022/10/30 03:06:52;;;;;;;37.50;11.02;;;;;;;10.85;100.00;98841.91;2644980;28;20043;-95
2022/10/30 03:08:08;;;;;;;52.95;11.65;;;;;;;10.91;100.00;98838.28;2645123;28;20058;-95
2022/10/30 03:09:24;;;;;;;56.92;11.75;;;;;;;10.93;100.00;98828.63;2645874;28;20046;-95
2022/10/30 03:10:39;;;;;;;37.05;11.13;;;;;;;10.88;100.00;98831.34;2645520;28;20051;-94
2022/10/30 03:11:55;;;;;;;25.40;11.10;;;;;;;10.92;100.00;98824.28;2645988;28;20036;-95
2022/10/30 03:13:10;;;;;;;24.33;9.82;;;;;;;10.88;100.00;98826.13;2646202;28;20042;-95
2022/10/30 03:14:26;;;;;;;33.25;11.05;;;;;;;10.72;100.00;98820.38;2647081;28;20493;-96
2022/10/30 03:15:41;;;;;;;51.40;11.02;;;;;;;10.80;100.00;98830.69;2647131;28;20414;-96
2022/10/30 03:16:57;;;;;;;53.85;11.43;;;;;;;10.74;100.00;98830.81;2647507;28;20052;-96
2022/10/30 03:18:13;;;;;;;52.75;11.82;;;;;;;10.77;100.00;98832.50;2647526;28;20073;-94
2022/10/30 03:19:28;;;;;;;42.80;10.68;;;;;;;10.71;100.00;98828.25;2646585;28;20043;-93
2022/10/30 03:20:44;;;;;;;32.45;10.27;;;;;;;10.79;100.00;98826.34;2646867;28;20068;-96
2022/10/30 03:21:59;;;;;;;71.97;11.75;;;;;;;10.83;100.00;98832.38;2647062;28;20040;-95
2022/10/30 03:23:15;;;;;;;60.13;10.68;;;;;;;10.70;100.00;98834.41;2646714;28;20126;-95
2022/10/30 03:24:31;;;;;;;68.88;10.95;;;;;;;10.72;100.00;98840.47;2647320;28;20051;-96
2022/10/30 03:25:46;;;;;;;108.22;13.40;;;;;;;10.49;100.00;98841.84;2635045;28;20044;-94
2022/10/30 03:27:02;;;;;;;30.67;9.98;;;;;;;10.64;100.00;98855.50;2637923;28;20066;-95
2022/10/30 03:28:18;;;;;;;44.97;10.45;;;;;;;10.64;100.00;98850.25;2645985;28;20055;-96
2022/10/30 03:29:33;;;;;;;16.88;9.63;;;;;;;10.85;100.00;98847.16;2646457;28;20047;-96
2022/10/30 03:30:50;;;;;;;15.38;9.52;;;;;;;10.95;100.00;98839.94;2646423;28;20065;-96
2022/10/30 03:32:10;;;;;;;25.42;9.60;;;;;;;11.01;100.00;98834.56;2647179;28;20386;-96
2022/10/30 03:33:26;;;;;;;20.00;9.32;;;;;;;10.97;100.00;98840.78;2647511;28;20063;-96
2022/10/30 03:34:41;;;;;;;62.60;12.20;;;;;;;10.99;100.00;98832.88;2647812;28;20050;-95
2022/10/30 03:35:57;;;;;;;58.55;11.02;;;;;;;11.03;100.00;98834.50;2648255;28;20070;-96
2022/10/30 03:37:13;;;;;;;31.63;9.85;;;;;;;10.93;100.00;98843.50;2647764;28;20115;-96
2022/10/30 03:38:28;;;;;;;26.42;11.18;;;;;;;10.82;100.00;98839.38;2648145;28;20052;-96
2022/10/30 03:39:44;;;;;;;41.15;12.18;;;;;;;10.88;100.00;98846.22;2648686;28;20065;-96
2022/10/30 03:41:00;;;;;;;54.60;11.82;;;;;;;10.94;100.00;98845.22;2649467;28;20096;-96
2022/10/30 03:42:15;;;;;;;36.95;11.90;;;;;;;10.93;100.00;98843.50;2651172;28;20047;-96
2022/10/30 03:43:31;;;;;;;37.67;11.35;;;;;;;10.84;100.00;98845.44;2652832;28;20052;-96
2022/10/30 03:44:47;;;;;;;30.20;10.98;;;;;;;10.52;100.00;98849.63;2652179;28;20107;-96
2022/10/30 03:46:02;;;;;;;33.35;11.32;;;;;;;10.64;100.00;98848.47;2650850;28;20056;-96
2022/10/30 03:47:17;;;;;;;36.90;11.27;;;;;;;10.59;100.00;98851.19;2649445;28;20051;-96
2022/10/30 03:48:33;;;;;;;49.92;11.20;;;;;;;10.64;100.00;98840.63;2648263;28;20048;-96
2022/10/30 03:49:49;;;;;;;34.88;11.50;;;;;;;10.69;100.00;98846.66;2648780;28;20096;-95
2022/10/30 03:51:05;;;;;;;40.42;12.35;;;;;;;10.71;100.00;98849.22;2648555;28;20075;-96
2022/10/30 03:52:20;;;;;;;29.83;11.82;;;;;;;10.40;100.00;98845.44;2647846;28;20048;-95
2022/10/30 03:53:36;;;;;;;30.63;11.93;;;;;;;10.58;100.00;98846.84;2646965;28;20051;-96
2022/10/30 03:54:51;;;;;;;34.05;12.10;;;;;;;10.67;100.00;98840.56;2649281;28;20785;-96
2022/10/30 03:56:08;;;;;;;46.67;11.90;;;;;;;10.60;100.00;98842.44;2649945;28;20043;-95
2022/10/30 03:57:24;;;;;;;46.33;12.98;;;;;;;10.86;100.00;98833.16;2650840;28;20040;-96
2022/10/30 03:58:40;;;;;;;45.75;12.85;;;;;;;11.00;100.00;98837.22;2649588;28;20173;-96
2022/10/30 03:59:55;;;;;;;50.25;12.10;;;;;;;11.01;100.00;98844.16;2650087;28;20047;-96
2022/10/30 04:01:11;;;;;;;22.90;11.32;;;;;;;10.68;100.00;98831.81;2653767;28;20055;-96
2022/10/30 04:02:27;;;;;;;21.65;11.32;;;;;;;10.67;100.00;98830.09;2651737;28;20043;-96
2022/10/30 04:03:43;;;;;;;23.83;11.68;;;;;;;10.71;100.00;98833.50;2652087;28;20069;-96
2022/10/30 04:04:58;;;;;;;37.35;12.40;;;;;;;10.83;100.00;98835.00;2651169;28;20040;-96
2022/10/30 04:06:14;;;;;;;35.53;12.30;;;;;;;10.81;100.00;98840.25;2651578;28;20047;-96
2022/10/30 04:07:29;;;;;;;49.67;12.43;;;;;;;10.93;100.00;98835.66;2652080;28;20039;-96
2022/10/30 04:08:45;;;;;;;24.00;11.55;;;;;;;10.68;100.00;98839.66;2653339;28;20054;-95
2022/10/30 04:10:01;;;;;;;31.42;12.10;;;;;;;10.80;100.00;98841.16;2651823;28;20051;-96
2022/10/30 04:11:16;;;;;;;42.58;12.35;;;;;;;10.83;100.00;98840.25;2651218;28;20118;-96
2022/10/30 04:12:32;;;;;;;38.42;12.27;;;;;;;10.78;100.00;98842.09;2653725;28;20024;-96
2022/10/30 04:13:48;;;;;;;37.83;11.13;;;;;;;10.70;100.00;98858.84;2653309;28;20059;-96
2022/10/30 04:15:04;;;;;;;34.55;11.80;;;;;;;10.73;100.00;98850.03;2651681;28;20098;-96
2022/10/30 04:16:20;;;;;;;19.83;10.18;;;;;;;10.82;100.00;98851.59;2651147;28;20108;-96
2022/10/30 04:17:35;;;;;;;16.35;10.05;;;;;;;10.93;100.00;98849.59;2650950;28;20040;-96
2022/10/30 04:18:51;;;;;;;21.33;10.73;;;;;;;10.95;100.00;98854.81;2651369;28;20051;-96
2022/10/30 04:20:07;;;;;;;40.17;11.05;;;;;;;11.11;100.00;98850.09;2651706;28;20054;-96
2022/10/30 04:21:22;;;;;;;25.52;9.80;;;;;;;10.88;100.00;98849.69;2651010;28;20054;-96
2022/10/30 04:22:38;;;;;;;26.17;10.68;;;;;;;11.01;100.00;98846.78;2650669;28;20051;-95
2022/10/30 04:23:54;;;;;;;20.30;10.38;;;;;;;11.13;100.00;98853.53;2651923;28;20051;-96
2022/10/30 04:25:10;;;;;;;22.70;9.90;;;;;;;11.00;100.00;98853.81;2651639;28;20044;-95
2022/10/30 04:26:25;;;;;;;44.25;10.77;;;;;;;10.91;100.00;98854.00;2652388;28;20047;-96
2022/10/30 04:27:42;;;;;;;35.08;10.30;;;;;;;11.11;100.00;98848.31;2652207;28;20040;-96
2022/10/30 04:28:58;;;;;;;20.70;10.25;;;;;;;11.12;100.00;98836.94;2652583;28;20052;-96
2022/10/30 04:30:16;;;;;;;31.00;10.35;;;;;;;11.15;100.00;98838.63;2651264;28;20040;-96
2022/10/30 04:31:31;;;;;;;53.72;11.43;;;;;;;11.16;100.00;98842.97;2644990;28;20048;-95
2022/10/30 04:32:52;;;;;;;52.90;11.98;;;;;;;11.10;100.00;98843.09;2648419;28;20040;-96
2022/10/30 04:34:08;;;;;;;40.35;11.18;;;;;;;10.82;100.00;98842.00;2649051;28;20048;-96
2022/10/30 04:35:26;;;;;;;23.17;11.20;;;;;;;10.60;100.00;98849.47;2646606;28;20051;-96
2022/10/30 04:36:41;;;;;;;25.30;11.05;;;;;;;10.35;100.00;98841.25;2643790;28;20138;-95
2022/10/30 04:38:09;;;;;;;42.20;11.98;;;;;;;10.73;100.00;98839.56;2646257;28;20077;-94
2022/10/30 04:39:25;;;;;;;34.63;11.55;;;;;;;10.77;100.00;98841.25;2645212;28;20048;-96
2022/10/30 04:40:42;;;;;;;37.50;11.18;;;;;;;10.71;100.00;98839.63;2655061;28;20020;-96
2022/10/30 04:41:57;;;;;;;34.67;10.80;;;;;;;10.69;100.00;98840.53;2653029;28;20051;-96
2022/10/30 04:43:13;;;;;;;19.25;10.52;;;;;;;10.88;100.00;98841.84;2655615;28;20043;-96
2022/10/30 04:44:29;;;;;;;27.52;10.88;;;;;;;11.01;100.00;98833.69;2655142;28;20495;-96
2022/10/30 04:45:44;;;;;;;16.95;10.10;;;;;;;11.04;100.00;98827.53;2654685;28;20040;-95
2022/10/30 04:47:00;;;;;;;26.42;9.77;;;;;;;11.04;100.00;98828.41;2654326;28;20047;-95
2022/10/30 04:48:17;;;;;;;33.25;10.07;;;;;;;11.01;100.00;98826.72;2651078;28;20038;-96
2022/10/30 04:49:33;;;;;;;22.95;10.18;;;;;;;11.10;100.00;98820.38;2652821;28;20031;-95
2022/10/30 04:50:48;;;;;;;31.45;10.85;;;;;;;11.08;100.00;98813.44;2648029;28;20050;-95
2022/10/30 04:52:04;;;;;;;34.05;10.70;;;;;;;10.98;100.00;98818.94;2645224;28;20066;-93
2022/10/30 04:53:20;;;;;;;33.88;11.32;;;;;;;10.73;100.00;98819.50;2643782;28;20048;-94
2022/10/30 04:54:35;;;;;;;31.73;11.07;;;;;;;10.74;100.00;98822.94;2644022;28;20051;-94
2022/10/30 04:55:54;;;;;;;40.90;11.38;;;;;;;10.90;100.00;98820.00;2643618;28;20486;-93
2022/10/30 04:57:10;;;;;;;42.25;10.65;;;;;;;10.95;100.00;98824.22;2648049;28;20044;-94
2022/10/30 04:58:25;;;;;;;45.40;10.57;;;;;;;10.93;100.00;98820.78;2649467;28;20051;-95
2022/10/30 04:59:41;;;;;;;47.20;11.07;;;;;;;10.87;100.00;98821.78;2649174;28;20093;-96
2022/10/30 05:01:01;;;;;;;37.00;10.15;;;;;;;10.90;100.00;98825.25;2646831;28;20473;-94
2022/10/30 05:02:19;;;;;;;19.27;9.75;;;;;;;10.96;100.00;98822.47;2644784;27;20052;-93
2022/10/30 05:03:35;;;;;;;20.30;9.90;;;;;;;10.97;100.00;98827.69;2654410;27;20047;-95
2022/10/30 05:04:50;;;;;;;17.92;9.63;;;;;;;10.95;100.00;98821.59;2654808;27;20054;-95
2022/10/30 05:06:16;;;;;;;20.60;9.57;;;;;;;10.99;100.00;98817.16;2647889;28;20051;-93
2022/10/30 05:07:31;;;;;;;26.73;9.25;;;;;;;11.03;100.00;98818.78;2647964;28;20047;-96
2022/10/30 05:08:47;;;;;;;39.42;10.77;;;;;;;11.07;100.00;98823.09;2646023;28;20051;-93
2022/10/30 05:10:03;;;;;;;24.98;10.20;;;;;;;11.05;100.00;98813.53;2645001;28;20063;-94
2022/10/30 05:11:19;;;;;;;18.50;10.20;;;;;;;10.86;100.00;98808.72;2647083;28;20039;-95
2022/10/30 05:12:34;;;;;;;23.95;10.52;;;;;;;10.93;100.00;98807.69;2645254;28;20083;-94
2022/10/30 05:13:50;;;;;;;149.80;14.30;;;;;;;10.87;100.00;98806.06;2644154;28;20069;-93
2022/10/30 05:15:06;;;;;;;35.47;10.30;;;;;;;10.75;100.00;98801.09;2641324;28;20488;-94
2022/10/30 05:16:21;;;;;;;22.95;10.52;;;;;;;10.87;100.00;98798.19;2642395;28;20105;-94
2022/10/30 05:17:37;;;;;;;55.30;11.93;;;;;;;10.57;100.00;98795.41;2644979;28;20051;-94
2022/10/30 05:18:53;;;;;;;64.57;12.75;;;;;;;10.45;100.00;98801.78;2644180;28;20048;-94
2022/10/30 05:20:09;;;;;;;39.45;12.02;;;;;;;10.73;100.00;98801.16;2644110;28;20400;-95
2022/10/30 05:21:24;;;;;;;28.48;10.07;;;;;;;10.83;100.00;98795.72;2645733;28;20039;-95
2022/10/30 05:22:40;;;;;;;34.03;10.88;;;;;;;10.93;100.00;98801.59;2644814;28;20625;-95
2022/10/30 05:23:55;;;;;;;31.38;10.68;;;;;;;10.80;100.00;98804.50;2634175;28;20137;-95
2022/10/30 05:25:11;;;;;;;34.63;9.70;;;;;;;10.68;100.00;98803.00;2637279;28;20469;-94
2022/10/30 05:26:27;;;;;;;28.00;10.00;;;;;;;10.79;100.00;98808.00;2644332;28;20061;-95
2022/10/30 05:27:42;;;;;;;26.73;9.55;;;;;;;10.79;100.00;98808.00;2643813;28;20079;-93
2022/10/30 05:28:58;;;;;;;16.67;9.00;;;;;;;10.93;100.00;98809.44;2642611;28;20043;-92
2022/10/30 05:30:14;;;;;;;25.90;10.18;;;;;;;10.90;100.00;98801.66;2642218;28;20047;-93
2022/10/30 05:31:29;;;;;;;40.40;10.73;;;;;;;10.95;100.00;98792.78;2643192;28;20039;-95
2022/10/30 05:32:45;;;;;;;31.13;9.23;;;;;;;10.75;100.00;98798.47;2643341;28;20044;-91
2022/10/30 05:34:00;;;;;;;30.65;10.18;;;;;;;10.66;100.00;98791.69;2642632;28;20043;-91
2022/10/30 05:35:16;;;;;;;28.92;9.32;;;;;;;10.66;100.00;98794.31;2642248;28;20435;-92
2022/10/30 05:36:32;;;;;;;43.97;11.48;;;;;;;10.56;100.00;98796.28;2641828;28;20075;-91
2022/10/30 05:37:47;;;;;;;36.53;9.93;;;;;;;10.70;100.00;98793.38;2642381;28;20500;-92
2022/10/30 05:39:03;;;;;;;19.38;8.80;;;;;;;10.72;100.00;98796.81;2642236;28;20043;-92
2022/10/30 05:40:19;;;;;;;25.55;9.70;;;;;;;10.78;100.00;98800.19;2642454;28;20076;-92
2022/10/30 05:41:34;;;;;;;36.10;11.93;;;;;;;10.90;100.00;98794.66;2642126;28;20669;-92
2022/10/30 05:42:50;;;;;;;34.78;10.25;;;;;;;10.68;100.00;98792.53;2642828;28;20090;-94
2022/10/30 05:44:06;;;;;;;37.22;9.98;;;;;;;10.72;100.00;98795.94;2642333;28;20371;-92
2022/10/30 05:45:21;;;;;;;46.50;10.85;;;;;;;10.81;100.00;98793.13;2642328;28;20066;-92
2022/10/30 05:46:37;;;;;;;50.05;10.95;;;;;;;10.79;100.00;98792.28;2642463;28;20048;-92
2022/10/30 05:48:04;;;;;;;47.88;10.50;;;;;;;10.58;100.00;98797.13;2642417;28;20093;-91
2022/10/30 05:49:19;;;;;;;35.53;10.45;;;;;;;10.61;100.00;98796.19;2642091;28;20101;-92
2022/10/30 05:50:35;;;;;;;35.95;10.13;;;;;;;10.66;100.00;98798.72;2642022;28;20090;-90
2022/10/30 05:51:51;;;;;;;27.77;9.77;;;;;;;10.69;100.00;98803.88;2642200;28;20047;-94
2022/10/30 05:53:06;;;;;;;26.98;10.05;;;;;;;10.72;100.00;98802.06;2642054;28;20413;-90
2022/10/30 05:54:22;;;;;;;32.58;9.98;;;;;;;10.77;100.00;98809.81;2641946;28;20298;-91
2022/10/30 05:55:37;;;;;;;23.70;8.70;;;;;;;10.69;100.00;98809.09;2642027;28;20039;-92
2022/10/30 05:56:53;;;;;;;21.60;9.25;;;;;;;10.69;100.00;98811.72;2641696;28;20047;-93
2022/10/30 05:58:09;;;;;;;14.98;9.45;;;;;;;10.87;100.00;98805.22;2641714;28;20044;-92